JAL417 RPLL-RJAA
Flight info
| Callsign | JAL417 |
|---|---|
| Flight time | N/A |
| Altitude | 35000 |
| Route | CAB2R CAB R597 VIGOR M501 LIMLE/N0498F370 DCT KEITH A339 YOSHI Y85 MOE Y81 RUTAS |
| Aircraft | B77W/H-SDE1E2E3FGHIJ2J3J4J5M1RWXY/LB1D1 |
Departure
| Time | 2026-04-30 21:19 |
|---|---|
| Airport | Ninoy Aquino International Airport (RPLL) |
Arrival
| Time | N/A |
|---|---|
| Airport | Narita International Airport (RJAA) |
| Time | Latitude | Longitude | Altitude | Speed | Heading |
|---|---|---|---|---|---|
| 2026-04-30 20:35 | 14.51604 | 121.01557 | 88 ft | 0 kts | 46° |
| 2026-04-30 20:51 | 14.51595 | 121.01547 | 88 ft | 2 kts | 48° |
| 2026-04-30 20:52 | 14.51586 | 121.01536 | 88 ft | 2 kts | 55° |
| 2026-04-30 20:52 | 14.51578 | 121.01523 | 88 ft | 2 kts | 60° |
| 2026-04-30 20:52 | 14.51567 | 121.01495 | 88 ft | 2 kts | 88° |
| 2026-04-30 20:53 | 14.51568 | 121.01479 | 88 ft | 2 kts | 107° |
| 2026-04-30 20:53 | 14.51575 | 121.01465 | 88 ft | 2 kts | 125° |
| 2026-04-30 20:53 | 14.51585 | 121.01453 | 88 ft | 2 kts | 139° |
| 2026-04-30 20:54 | 14.51607 | 121.01433 | 88 ft | 2 kts | 135° |
| 2026-04-30 20:54 | 14.51617 | 121.01422 | 88 ft | 2 kts | 135° |
| 2026-04-30 20:54 | 14.51628 | 121.01411 | 88 ft | 2 kts | 135° |
| 2026-04-30 20:55 | 14.51648 | 121.01392 | 88 ft | 0 kts | 135° |
| 2026-04-30 20:55 | 14.51648 | 121.01391 | 88 ft | 0 kts | 135° |
| 2026-04-30 21:02 | 14.51648 | 121.01392 | 88 ft | 0 kts | 135° |
| 2026-04-30 21:03 | 14.51644 | 121.01395 | 88 ft | 2 kts | 135° |
| 2026-04-30 21:03 | 14.51619 | 121.01420 | 88 ft | 7 kts | 135° |
| 2026-04-30 21:03 | 14.51572 | 121.01469 | 88 ft | 11 kts | 135° |
| 2026-04-30 21:03 | 14.51509 | 121.01533 | 88 ft | 15 kts | 135° |
| 2026-04-30 21:04 | 14.51444 | 121.01601 | 88 ft | 12 kts | 134° |
| 2026-04-30 21:04 | 14.51384 | 121.01663 | 88 ft | 11 kts | 134° |
| 2026-04-30 21:04 | 14.51288 | 121.01765 | 88 ft | 9 kts | 136° |
| 2026-04-30 21:05 | 14.51241 | 121.01812 | 88 ft | 8 kts | 136° |
| 2026-04-30 21:05 | 14.51201 | 121.01852 | 88 ft | 7 kts | 136° |
| 2026-04-30 21:05 | 14.51164 | 121.01890 | 88 ft | 7 kts | 136° |
| 2026-04-30 21:05 | 14.51131 | 121.01922 | 88 ft | 6 kts | 136° |
| 2026-04-30 21:06 | 14.51099 | 121.01953 | 88 ft | 5 kts | 136° |
| 2026-04-30 21:06 | 14.51079 | 121.01972 | 88 ft | 1 kts | 142° |
| 2026-04-30 21:06 | 14.51064 | 121.01977 | 88 ft | 1 kts | 183° |
| 2026-04-30 21:06 | 14.51055 | 121.01974 | 88 ft | 2 kts | 202° |
| 2026-04-30 21:07 | 14.51018 | 121.01935 | 88 ft | 11 kts | 232° |
| 2026-04-30 21:07 | 14.50975 | 121.01868 | 88 ft | 10 kts | 240° |
| 2026-04-30 21:07 | 14.50940 | 121.01804 | 88 ft | 9 kts | 240° |
| 2026-04-30 21:07 | 14.50908 | 121.01746 | 88 ft | 9 kts | 240° |
| 2026-04-30 21:08 | 14.50878 | 121.01691 | 88 ft | 8 kts | 240° |
| 2026-04-30 21:08 | 14.50850 | 121.01640 | 88 ft | 7 kts | 239° |
| 2026-04-30 21:08 | 14.50822 | 121.01594 | 88 ft | 7 kts | 239° |
| 2026-04-30 21:08 | 14.50793 | 121.01543 | 88 ft | 9 kts | 239° |
| 2026-04-30 21:09 | 14.50760 | 121.01482 | 88 ft | 10 kts | 240° |
| 2026-04-30 21:09 | 14.50721 | 121.01412 | 88 ft | 12 kts | 241° |
| 2026-04-30 21:09 | 14.50680 | 121.01334 | 88 ft | 13 kts | 241° |
| 2026-04-30 21:09 | 14.50634 | 121.01248 | 88 ft | 14 kts | 241° |
| 2026-04-30 21:10 | 14.50582 | 121.01157 | 88 ft | 15 kts | 239° |
| 2026-04-30 21:10 | 14.50529 | 121.01063 | 88 ft | 15 kts | 240° |
| 2026-04-30 21:10 | 14.50472 | 121.00961 | 88 ft | 16 kts | 240° |
| 2026-04-30 21:10 | 14.50418 | 121.00865 | 88 ft | 14 kts | 239° |
| 2026-04-30 21:11 | 14.50367 | 121.00777 | 88 ft | 13 kts | 239° |
| 2026-04-30 21:11 | 14.50322 | 121.00697 | 88 ft | 12 kts | 242° |
| 2026-04-30 21:11 | 14.50283 | 121.00621 | 88 ft | 11 kts | 240° |
| 2026-04-30 21:11 | 14.50245 | 121.00552 | 88 ft | 10 kts | 240° |
| 2026-04-30 21:12 | 14.50210 | 121.00491 | 88 ft | 9 kts | 239° |
| 2026-04-30 21:12 | 14.50178 | 121.00430 | 88 ft | 9 kts | 243° |
| 2026-04-30 21:12 | 14.50152 | 121.00373 | 88 ft | 8 kts | 247° |
| 2026-04-30 21:12 | 14.50127 | 121.00330 | 88 ft | 7 kts | 237° |
| 2026-04-30 21:13 | 14.50099 | 121.00286 | 88 ft | 7 kts | 236° |
| 2026-04-30 21:13 | 14.50071 | 121.00243 | 88 ft | 6 kts | 237° |
| 2026-04-30 21:13 | 14.50049 | 121.00203 | 88 ft | 6 kts | 240° |
| 2026-04-30 21:13 | 14.50029 | 121.00166 | 88 ft | 5 kts | 240° |
| 2026-04-30 21:14 | 14.50009 | 121.00129 | 88 ft | 5 kts | 240° |
| 2026-04-30 21:14 | 14.49990 | 121.00095 | 88 ft | 5 kts | 240° |
| 2026-04-30 21:14 | 14.49972 | 121.00062 | 88 ft | 5 kts | 240° |
| 2026-04-30 21:14 | 14.49955 | 121.00030 | 88 ft | 5 kts | 240° |
| 2026-04-30 21:15 | 14.49937 | 120.99998 | 88 ft | 4 kts | 237° |
| 2026-04-30 21:15 | 14.49921 | 120.99976 | 88 ft | 2 kts | 230° |
| 2026-04-30 21:15 | 14.49911 | 120.99967 | 88 ft | 1 kts | 212° |
| 2026-04-30 21:15 | 14.49905 | 120.99964 | 88 ft | 0 kts | 203° |
| 2026-04-30 21:17 | 14.49905 | 120.99963 | 88 ft | 0 kts | 203° |
| 2026-04-30 21:17 | 14.49903 | 120.99963 | 88 ft | 2 kts | 197° |
| 2026-04-30 21:17 | 14.49865 | 120.99970 | 88 ft | 6 kts | 155° |
| 2026-04-30 21:17 | 14.49829 | 120.99994 | 88 ft | 6 kts | 138° |
| 2026-04-30 21:18 | 14.49806 | 121.00032 | 88 ft | 5 kts | 99° |
| 2026-04-30 21:18 | 14.49817 | 121.00075 | 88 ft | 6 kts | 62° |
| 2026-04-30 21:18 | 14.49838 | 121.00111 | 88 ft | 2 kts | 59° |
| 2026-04-30 21:18 | 14.49847 | 121.00127 | 88 ft | 2 kts | 60° |
| 2026-04-30 21:19 | 14.49897 | 121.00217 | 88 ft | 48 kts | 60° |
| 2026-04-30 21:19 | 14.50213 | 121.00786 | 88 ft | 136 kts | 60° |
| 2026-04-30 21:19 | 14.50799 | 121.01798 | 441 ft | 184 kts | 58° |
| 2026-04-30 21:19 | 14.51450 | 121.02938 | 1515 ft | 186 kts | 63° |
| 2026-04-30 21:20 | 14.52048 | 121.04082 | 2213 ft | 189 kts | 63° |
| 2026-04-30 21:20 | 14.52700 | 121.05274 | 2668 ft | 204 kts | 62° |
| 2026-04-30 21:20 | 14.53401 | 121.06537 | 3188 ft | 218 kts | 62° |
| 2026-04-30 21:20 | 14.54176 | 121.07933 | 3703 ft | 234 kts | 62° |
| 2026-04-30 21:21 | 14.55000 | 121.09419 | 4305 ft | 248 kts | 62° |
| 2026-04-30 21:21 | 14.55848 | 121.10948 | 5060 ft | 254 kts | 62° |
| 2026-04-30 21:21 | 14.58572 | 121.13282 | 6541 ft | 273 kts | 17° |
| 2026-04-30 21:22 | 14.60459 | 121.13487 | 7301 ft | 280 kts | 4° |
| 2026-04-30 21:22 | 14.66345 | 121.13482 | 9604 ft | 292 kts | 3° |
| 2026-04-30 21:23 | 14.68374 | 121.13490 | 10318 ft | 297 kts | 1° |
| 2026-04-30 21:23 | 14.70501 | 121.13281 | 10743 ft | 315 kts | 351° |
| 2026-04-30 21:23 | 14.74974 | 121.11820 | 11586 ft | 350 kts | 342° |
| 2026-04-30 21:24 | 14.77331 | 121.10945 | 11960 ft | 368 kts | 342° |
| 2026-04-30 21:24 | 14.79849 | 121.10031 | 11951 ft | 392 kts | 342° |
| 2026-04-30 21:24 | 14.82464 | 121.09087 | 11947 ft | 398 kts | 342° |
| 2026-04-30 21:24 | 14.85094 | 121.08141 | 11943 ft | 400 kts | 342° |
| 2026-04-30 21:25 | 14.90523 | 121.06515 | 11949 ft | 402 kts | 354° |
| 2026-04-30 21:25 | 14.93361 | 121.06264 | 12529 ft | 410 kts | 357° |
| 2026-04-30 21:25 | 14.96166 | 121.06065 | 13587 ft | 405 kts | 357° |
| 2026-04-30 21:26 | 15.01843 | 121.05667 | 15148 ft | 413 kts | 357° |
| 2026-04-30 21:26 | 15.04744 | 121.05465 | 15830 ft | 420 kts | 357° |
| 2026-04-30 21:27 | 15.10652 | 121.05054 | 17265 ft | 429 kts | 356° |
| 2026-04-30 21:27 | 15.13686 | 121.04844 | 17959 ft | 434 kts | 356° |
| 2026-04-30 21:27 | 15.16700 | 121.04634 | 18622 ft | 439 kts | 356° |
| 2026-04-30 21:28 | 15.22888 | 121.04205 | 19922 ft | 449 kts | 356° |
| 2026-04-30 21:28 | 15.26039 | 121.03986 | 20545 ft | 454 kts | 356° |
| 2026-04-30 21:28 | 15.32504 | 121.03536 | 21819 ft | 462 kts | 356° |
| 2026-04-30 21:29 | 15.35720 | 121.03326 | 22399 ft | 466 kts | 358° |
| 2026-04-30 21:29 | 15.45312 | 121.05308 | 24209 ft | 479 kts | 24° |
| 2026-04-30 21:30 | 15.50956 | 121.09166 | 25351 ft | 490 kts | 42° |
| 2026-04-30 21:31 | 15.57017 | 121.17835 | 26977 ft | 506 kts | 59° |
| 2026-04-30 21:31 | 15.60611 | 121.24213 | 28069 ft | 515 kts | 59° |
| 2026-04-30 21:32 | 15.64250 | 121.30664 | 29126 ft | 524 kts | 59° |
| 2026-04-30 21:32 | 15.66099 | 121.33939 | 29759 ft | 526 kts | 59° |
| 2026-04-30 21:32 | 15.67959 | 121.37232 | 30514 ft | 525 kts | 59° |
| 2026-04-30 21:32 | 15.69785 | 121.40468 | 31265 ft | 523 kts | 59° |
| 2026-04-30 21:33 | 15.71624 | 121.43725 | 31972 ft | 521 kts | 60° |
| 2026-04-30 21:33 | 15.75281 | 121.50206 | 33163 ft | 523 kts | 60° |
| 2026-04-30 21:33 | 15.77124 | 121.53474 | 33815 ft | 523 kts | 60° |
| 2026-04-30 21:34 | 15.78961 | 121.56731 | 34553 ft | 520 kts | 60° |
| 2026-04-30 21:34 | 15.82631 | 121.63245 | 34980 ft | 521 kts | 60° |
| 2026-04-30 21:34 | 15.84452 | 121.66477 | 34970 ft | 517 kts | 60° |
| 2026-04-30 21:35 | 15.88090 | 121.72942 | 34966 ft | 519 kts | 60° |
| 2026-04-30 21:35 | 15.91720 | 121.79398 | 34955 ft | 518 kts | 60° |
| 2026-04-30 21:36 | 15.95369 | 121.85892 | 34956 ft | 520 kts | 60° |
| 2026-04-30 21:37 | 16.02662 | 121.98888 | 34958 ft | 520 kts | 60° |
| 2026-04-30 21:37 | 16.06283 | 122.05351 | 34962 ft | 519 kts | 60° |
| 2026-04-30 21:38 | 16.09927 | 122.11860 | 34964 ft | 519 kts | 60° |
| 2026-04-30 21:38 | 16.13586 | 122.18402 | 34960 ft | 519 kts | 60° |
| 2026-04-30 21:39 | 16.17229 | 122.24921 | 34956 ft | 519 kts | 60° |
| 2026-04-30 21:39 | 16.20873 | 122.31448 | 34950 ft | 519 kts | 60° |
| 2026-04-30 21:40 | 16.24496 | 122.37943 | 34950 ft | 520 kts | 60° |
| 2026-04-30 21:40 | 16.28132 | 122.44468 | 34943 ft | 520 kts | 60° |
| 2026-04-30 21:41 | 16.31771 | 122.51004 | 34938 ft | 519 kts | 60° |
| 2026-04-30 21:41 | 16.35420 | 122.57560 | 34937 ft | 520 kts | 60° |
| 2026-04-30 21:42 | 16.39059 | 122.64112 | 34939 ft | 520 kts | 60° |
| 2026-04-30 21:42 | 16.42717 | 122.70705 | 34931 ft | 520 kts | 60° |
| 2026-04-30 21:43 | 16.45754 | 122.76181 | 34931 ft | 520 kts | 60° |
| 2026-04-30 21:43 | 16.49981 | 122.83810 | 34930 ft | 521 kts | 60° |
| 2026-04-30 21:44 | 16.53631 | 122.90403 | 34930 ft | 520 kts | 60° |
| 2026-04-30 21:44 | 16.57268 | 122.96978 | 34932 ft | 521 kts | 60° |
| 2026-04-30 21:45 | 16.60895 | 123.03542 | 34931 ft | 522 kts | 60° |
| 2026-04-30 21:45 | 16.64506 | 123.10082 | 34932 ft | 521 kts | 60° |
| 2026-04-30 21:46 | 16.68157 | 123.16702 | 34933 ft | 522 kts | 60° |
| 2026-04-30 21:46 | 16.71784 | 123.23284 | 34935 ft | 522 kts | 60° |
| 2026-04-30 21:47 | 16.75407 | 123.29865 | 34936 ft | 521 kts | 60° |
| 2026-04-30 21:47 | 16.79062 | 123.36510 | 34941 ft | 521 kts | 60° |
| 2026-04-30 21:48 | 16.82677 | 123.43089 | 34940 ft | 521 kts | 60° |
| 2026-04-30 21:48 | 16.86300 | 123.49687 | 34943 ft | 522 kts | 60° |
| 2026-04-30 21:49 | 16.89906 | 123.56261 | 34948 ft | 523 kts | 60° |
| 2026-04-30 21:49 | 16.93570 | 123.62949 | 34944 ft | 523 kts | 60° |
| 2026-04-30 21:50 | 16.97196 | 123.69572 | 34943 ft | 524 kts | 60° |
| 2026-04-30 21:50 | 17.00835 | 123.76228 | 34948 ft | 523 kts | 60° |
| 2026-04-30 21:51 | 17.04432 | 123.82811 | 34951 ft | 524 kts | 60° |
| 2026-04-30 21:51 | 17.08077 | 123.89490 | 34952 ft | 524 kts | 60° |
| 2026-04-30 21:52 | 17.11699 | 123.96134 | 34948 ft | 523 kts | 60° |
| 2026-04-30 21:52 | 17.15328 | 124.02798 | 34950 ft | 524 kts | 60° |
| 2026-04-30 21:53 | 17.18983 | 124.09515 | 34950 ft | 524 kts | 60° |
| 2026-04-30 21:53 | 17.22604 | 124.16177 | 34951 ft | 524 kts | 60° |
| 2026-04-30 21:54 | 17.26226 | 124.22848 | 34952 ft | 525 kts | 60° |
| 2026-04-30 21:54 | 17.29824 | 124.29481 | 34953 ft | 524 kts | 60° |
| 2026-04-30 21:55 | 17.33387 | 124.36109 | 34947 ft | 524 kts | 63° |
| 2026-04-30 21:55 | 17.35707 | 124.43370 | 34953 ft | 524 kts | 81° |
| 2026-04-30 21:56 | 17.35915 | 124.50938 | 34958 ft | 521 kts | 97° |
| 2026-04-30 21:56 | 17.35126 | 124.58497 | 34955 ft | 521 kts | 98° |
| 2026-04-30 21:57 | 17.34292 | 124.66028 | 34953 ft | 520 kts | 98° |
| 2026-04-30 21:57 | 17.33445 | 124.73553 | 34952 ft | 521 kts | 98° |
| 2026-04-30 21:58 | 17.32584 | 124.81112 | 34952 ft | 520 kts | 98° |
| 2026-04-30 21:58 | 17.31724 | 124.88618 | 34956 ft | 520 kts | 98° |
| 2026-04-30 21:59 | 17.30852 | 124.96175 | 34957 ft | 520 kts | 98° |
| 2026-04-30 22:00 | 17.29545 | 125.07452 | 34958 ft | 519 kts | 98° |
| 2026-04-30 22:00 | 17.28243 | 125.18616 | 34959 ft | 519 kts | 98° |
| 2026-04-30 22:01 | 17.27356 | 125.26189 | 34960 ft | 520 kts | 98° |
| 2026-04-30 22:01 | 17.26473 | 125.33704 | 34959 ft | 519 kts | 98° |
| 2026-04-30 22:02 | 17.25585 | 125.41234 | 34960 ft | 521 kts | 98° |
| 2026-04-30 22:02 | 17.24694 | 125.48771 | 34961 ft | 520 kts | 98° |
| 2026-04-30 22:03 | 17.23803 | 125.56279 | 34963 ft | 520 kts | 98° |
| 2026-04-30 22:03 | 17.22910 | 125.63780 | 34968 ft | 519 kts | 98° |
| 2026-04-30 22:04 | 17.22004 | 125.71359 | 34965 ft | 518 kts | 98° |
| 2026-04-30 22:05 | 17.20659 | 125.82577 | 34970 ft | 519 kts | 98° |
| 2026-04-30 22:05 | 17.19752 | 125.90112 | 34971 ft | 518 kts | 98° |
| 2026-04-30 22:06 | 17.18841 | 125.97660 | 34971 ft | 520 kts | 98° |
| 2026-04-30 22:06 | 17.17475 | 126.08936 | 34971 ft | 519 kts | 98° |
| 2026-04-30 22:07 | 17.16559 | 126.16457 | 34971 ft | 518 kts | 98° |
| 2026-04-30 22:07 | 17.15643 | 126.23960 | 34971 ft | 519 kts | 98° |
| 2026-04-30 22:08 | 17.14732 | 126.31399 | 34972 ft | 519 kts | 98° |
| 2026-04-30 22:08 | 17.13813 | 126.38880 | 34974 ft | 518 kts | 98° |
| 2026-04-30 22:09 | 17.12893 | 126.46349 | 34968 ft | 518 kts | 98° |
| 2026-04-30 22:09 | 17.11966 | 126.53845 | 34959 ft | 518 kts | 98° |
| 2026-04-30 22:10 | 17.11038 | 126.61337 | 34957 ft | 519 kts | 98° |
| 2026-04-30 22:10 | 17.10106 | 126.68848 | 34946 ft | 517 kts | 98° |
| 2026-04-30 22:11 | 17.08700 | 126.80130 | 34949 ft | 517 kts | 98° |
| 2026-04-30 22:12 | 17.07765 | 126.87611 | 34950 ft | 516 kts | 98° |
| 2026-04-30 22:12 | 17.06821 | 126.95128 | 34948 ft | 517 kts | 98° |
| 2026-04-30 22:13 | 17.05876 | 127.02638 | 34952 ft | 517 kts | 98° |
| 2026-04-30 22:13 | 17.04933 | 127.10113 | 34952 ft | 518 kts | 98° |
| 2026-04-30 22:14 | 17.03978 | 127.17653 | 34954 ft | 519 kts | 98° |
| 2026-04-30 22:14 | 17.03026 | 127.25149 | 34953 ft | 518 kts | 98° |
| 2026-04-30 22:15 | 17.02071 | 127.32649 | 34953 ft | 517 kts | 98° |
| 2026-04-30 22:15 | 17.01112 | 127.40157 | 34953 ft | 517 kts | 98° |
| 2026-04-30 22:16 | 17.00163 | 127.47559 | 34953 ft | 517 kts | 98° |
| 2026-04-30 22:17 | 16.98247 | 127.62447 | 34955 ft | 517 kts | 98° |
| 2026-04-30 22:17 | 16.96795 | 127.73677 | 34948 ft | 517 kts | 98° |
| 2026-04-30 22:18 | 16.95341 | 127.84870 | 34949 ft | 517 kts | 98° |
| 2026-04-30 22:19 | 16.93877 | 127.96088 | 34956 ft | 517 kts | 98° |
| 2026-04-30 22:20 | 16.92414 | 128.07253 | 34971 ft | 519 kts | 98° |
| 2026-04-30 22:20 | 16.90946 | 128.18405 | 34971 ft | 517 kts | 98° |
| 2026-04-30 22:21 | 16.89955 | 128.25909 | 34971 ft | 516 kts | 98° |
| 2026-04-30 22:21 | 16.88963 | 128.33395 | 34973 ft | 517 kts | 98° |
| 2026-04-30 22:22 | 16.87970 | 128.40878 | 34974 ft | 516 kts | 98° |
| 2026-04-30 22:22 | 16.86987 | 128.48253 | 34974 ft | 517 kts | 98° |
| 2026-04-30 22:23 | 16.85994 | 128.55690 | 34974 ft | 516 kts | 98° |
| 2026-04-30 22:23 | 16.84993 | 128.63159 | 34974 ft | 516 kts | 98° |
| 2026-04-30 22:24 | 16.83985 | 128.70665 | 34968 ft | 516 kts | 98° |
| 2026-04-30 22:24 | 16.82979 | 128.78131 | 34970 ft | 516 kts | 98° |
| 2026-04-30 22:25 | 16.81965 | 128.85640 | 34970 ft | 515 kts | 98° |
| 2026-04-30 22:25 | 16.80953 | 128.93108 | 34971 ft | 515 kts | 98° |
| 2026-04-30 22:26 | 16.79436 | 129.04271 | 34973 ft | 515 kts | 98° |
| 2026-04-30 22:27 | 16.78415 | 129.11755 | 34972 ft | 516 kts | 98° |
| 2026-04-30 22:27 | 16.76879 | 129.22978 | 34969 ft | 515 kts | 98° |
| 2026-04-30 22:28 | 16.75353 | 129.34079 | 34970 ft | 514 kts | 98° |
| 2026-04-30 22:29 | 16.73315 | 129.48845 | 34972 ft | 513 kts | 98° |
| 2026-04-30 22:31 | 16.69694 | 129.74869 | 34963 ft | 512 kts | 98° |
| 2026-04-30 22:32 | 16.67619 | 129.93355 | 34964 ft | 513 kts | 85° |
| 2026-04-30 22:33 | 16.70690 | 130.04062 | 35225 ft | 518 kts | 58° |
| 2026-04-30 22:33 | 16.75109 | 130.09895 | 36740 ft | 505 kts | 45° |
| 2026-04-30 22:34 | 16.82476 | 130.17946 | 36980 ft | 506 kts | 44° |
| 2026-04-30 22:35 | 16.87318 | 130.23251 | 36984 ft | 505 kts | 44° |
| 2026-04-30 22:36 | 16.99535 | 130.36687 | 36994 ft | 507 kts | 44° |
| 2026-04-30 22:37 | 17.09221 | 130.47369 | 36988 ft | 507 kts | 44° |
| 2026-04-30 22:38 | 17.19011 | 130.58188 | 36989 ft | 506 kts | 44° |
| 2026-04-30 22:39 | 17.26340 | 130.66298 | 36985 ft | 507 kts | 45° |
| 2026-04-30 22:40 | 17.41011 | 130.82564 | 36989 ft | 508 kts | 45° |
| 2026-04-30 22:41 | 17.53171 | 130.96077 | 36982 ft | 507 kts | 44° |
| 2026-04-30 22:43 | 17.67760 | 131.12326 | 36991 ft | 509 kts | 44° |
| 2026-04-30 22:44 | 17.77530 | 131.23231 | 36989 ft | 509 kts | 44° |
| 2026-04-30 22:45 | 17.92200 | 131.39642 | 36991 ft | 507 kts | 44° |
| 2026-04-30 22:47 | 18.06931 | 131.56163 | 36999 ft | 509 kts | 44° |
| 2026-04-30 22:48 | 18.16715 | 131.67160 | 36996 ft | 509 kts | 44° |
| 2026-04-30 22:49 | 18.31362 | 131.83659 | 37007 ft | 509 kts | 44° |
| 2026-04-30 22:51 | 18.45945 | 132.00130 | 37004 ft | 510 kts | 44° |
| 2026-04-30 22:52 | 18.53258 | 132.08406 | 37004 ft | 511 kts | 44° |
| 2026-04-30 22:53 | 18.62973 | 132.19418 | 37008 ft | 511 kts | 44° |
| 2026-04-30 22:53 | 18.70241 | 132.27669 | 37009 ft | 510 kts | 44° |
| 2026-04-30 22:55 | 18.82433 | 132.41536 | 37012 ft | 510 kts | 44° |
| 2026-04-30 22:56 | 18.92187 | 132.52653 | 37012 ft | 511 kts | 44° |
| 2026-04-30 22:57 | 19.04307 | 132.66496 | 37004 ft | 512 kts | 44° |
| 2026-04-30 22:58 | 19.14069 | 132.77667 | 37005 ft | 512 kts | 44° |
| 2026-04-30 22:59 | 19.28682 | 132.94431 | 37008 ft | 512 kts | 44° |